In Rescue
 
Open Full Screen Window  High Contrast Mode
Wind Gusting 17 knots
14
September 23, 2021 1:16 PM CDT
Weather Information
Wind Direction
  160 °
Wind Speed
  14 kt (16 mph)
Wind Gust
  17 kt (20 mph)
Altimeter
30.02 in
Visibility
10 SM
Temperature
20° C
68° F
Dewpoint
05° C
41° F
Humidity
38%
1hr Rain Fall
00.00 in.
24hr Rain Fall
00.00 in.
Sky Condition
Clear
VFR

METAR K14Y 231816Z AUTO 16014G17KT 10SM CLR 20/05 A3002 RMK AO2

FAA Disclaimer: The data displayed is for advisory purposes only and is not to be used for flight planning or operations.